sensor_id;sensor_type;location;lat;lon;timestamp;P1;durP1;ratioP1;P2;durP2;ratioP2
22841;SDS011;11587;47.064;15.444;2022-08-21T00:02:00;1.40;;;1.20;;
22841;SDS011;11587;47.064;15.444;2022-08-21T00:06:51;1.15;;;1.05;;
22841;SDS011;11587;47.064;15.444;2022-08-21T00:09:18;2.33;;;1.08;;
22841;SDS011;11587;47.064;15.444;2022-08-21T00:11:45;1.40;;;1.02;;
22841;SDS011;11587;47.064;15.444;2022-08-21T00:14:12;1.65;;;1.25;;
22841;SDS011;11587;47.064;15.444;2022-08-21T00:16:39;1.20;;;1.10;;
22841;SDS011;11587;47.064;15.444;2022-08-21T00:19:05;1.55;;;1.00;;
22841;SDS011;11587;47.064;15.444;2022-08-21T00:21:32;1.08;;;0.93;;
22841;SDS011;11587;47.064;15.444;2022-08-21T00:23:59;1.10;;;1.00;;
22841;SDS011;11587;47.064;15.444;2022-08-21T00:26:25;1.10;;;0.90;;
22841;SDS011;11587;47.064;15.444;2022-08-21T00:28:51;1.10;;;1.00;;
22841;SDS011;11587;47.064;15.444;2022-08-21T00:36:08;1.30;;;1.07;;
22841;SDS011;11587;47.064;15.444;2022-08-21T00:38:35;1.10;;;1.00;;
22841;SDS011;11587;47.064;15.444;2022-08-21T00:41:03;1.20;;;1.10;;
22841;SDS011;11587;47.064;15.444;2022-08-21T00:43:33;1.27;;;1.10;;
22841;SDS011;11587;47.064;15.444;2022-08-21T00:46:00;1.35;;;1.10;;
22841;SDS011;11587;47.064;15.444;2022-08-21T00:51:13;1.40;;;1.20;;
22841;SDS011;11587;47.064;15.444;2022-08-21T00:53:49;1.58;;;1.13;;
22841;SDS011;11587;47.064;15.444;2022-08-21T00:56:21;1.80;;;1.30;;
22841;SDS011;11587;47.064;15.444;2022-08-21T00:58:49;3.05;;;1.10;;
22841;SDS011;11587;47.064;15.444;2022-08-21T01:03:41;1.70;;;1.07;;
22841;SDS011;11587;47.064;15.444;2022-08-21T01:06:07;1.10;;;1.00;;
22841;SDS011;11587;47.064;15.444;2022-08-21T01:08:34;1.33;;;1.00;;
22841;SDS011;11587;47.064;15.444;2022-08-21T01:11:00;1.77;;;1.10;;
22841;SDS011;11587;47.064;15.444;2022-08-21T01:13:28;1.70;;;1.00;;
22841;SDS011;11587;47.064;15.444;2022-08-21T01:15:58;1.40;;;0.95;;
22841;SDS011;11587;47.064;15.444;2022-08-21T01:21:04;1.83;;;0.90;;
22841;SDS011;11587;47.064;15.444;2022-08-21T01:23:33;1.75;;;1.05;;
22841;SDS011;11587;47.064;15.444;2022-08-21T01:26:04;1.10;;;0.90;;
22841;SDS011;11587;47.064;15.444;2022-08-21T01:28:33;1.17;;;1.00;;
22841;SDS011;11587;47.064;15.444;2022-08-21T01:31:05;1.20;;;1.10;;
22841;SDS011;11587;47.064;15.444;2022-08-21T01:36:00;1.10;;;1.00;;
22841;SDS011;11587;47.064;15.444;2022-08-21T01:38:26;1.27;;;1.08;;
22841;SDS011;11587;47.064;15.444;2022-08-21T01:40:52;1.33;;;1.00;;
22841;SDS011;11587;47.064;15.444;2022-08-21T01:43:18;1.70;;;1.13;;
22841;SDS011;11587;47.064;15.444;2022-08-21T01:50:35;1.43;;;1.10;;
22841;SDS011;11587;47.064;15.444;2022-08-21T01:53:01;1.60;;;0.82;;
22841;SDS011;11587;47.064;15.444;2022-08-21T01:55:27;1.20;;;1.10;;
22841;SDS011;11587;47.064;15.444;2022-08-21T01:57:53;1.20;;;1.00;;
22841;SDS011;11587;47.064;15.444;2022-08-21T02:00:20;1.10;;;0.90;;
22841;SDS011;11587;47.064;15.444;2022-08-21T02:02:50;1.25;;;1.02;;
22841;SDS011;11587;47.064;15.444;2022-08-21T02:05:18;1.33;;;1.10;;
22841;SDS011;11587;47.064;15.444;2022-08-21T02:07:46;1.13;;;0.98;;
22841;SDS011;11587;47.064;15.444;2022-08-21T02:10:15;1.63;;;0.90;;
22841;SDS011;11587;47.064;15.444;2022-08-21T02:12:45;1.60;;;0.98;;
22841;SDS011;11587;47.064;15.444;2022-08-21T02:17:37;1.17;;;1.07;;
22841;SDS011;11587;47.064;15.444;2022-08-21T02:20:05;1.13;;;1.00;;
22841;SDS011;11587;47.064;15.444;2022-08-21T02:22:32;1.25;;;1.00;;
22841;SDS011;11587;47.064;15.444;2022-08-21T02:24:58;1.17;;;1.08;;
22841;SDS011;11587;47.064;15.444;2022-08-21T02:29:49;1.97;;;1.07;;
22841;SDS011;11587;47.064;15.444;2022-08-21T02:32:15;1.17;;;1.08;;
22841;SDS011;11587;47.064;15.444;2022-08-21T02:34:41;1.67;;;1.10;;
22841;SDS011;11587;47.064;15.444;2022-08-21T02:37:07;1.57;;;1.00;;
22841;SDS011;11587;47.064;15.444;2022-08-21T02:39:33;1.30;;;1.00;;
22841;SDS011;11587;47.064;15.444;2022-08-21T02:41:59;1.90;;;1.27;;
22841;SDS011;11587;47.064;15.444;2022-08-21T02:44:25;1.48;;;1.13;;
22841;SDS011;11587;47.064;15.444;2022-08-21T02:46:51;2.33;;;1.20;;
22841;SDS011;11587;47.064;15.444;2022-08-21T02:49:17;2.05;;;1.10;;
22841;SDS011;11587;47.064;15.444;2022-08-21T02:51:43;1.20;;;1.00;;
22841;SDS011;11587;47.064;15.444;2022-08-21T02:56:34;1.87;;;1.07;;
22841;SDS011;11587;47.064;15.444;2022-08-21T02:59:00;1.20;;;1.10;;
22841;SDS011;11587;47.064;15.444;2022-08-21T03:01:26;1.98;;;1.17;;
22841;SDS011;11587;47.064;15.444;2022-08-21T03:03:52;1.30;;;1.17;;
22841;SDS011;11587;47.064;15.444;2022-08-21T03:08:44;1.27;;;1.10;;
22841;SDS011;11587;47.064;15.444;2022-08-21T03:11:10;1.90;;;1.30;;
22841;SDS011;11587;47.064;15.444;2022-08-21T03:13:36;1.30;;;1.15;;
22841;SDS011;11587;47.064;15.444;2022-08-21T03:16:03;1.50;;;1.10;;
22841;SDS011;11587;47.064;15.444;2022-08-21T03:23:20;1.33;;;1.17;;
22841;SDS011;11587;47.064;15.444;2022-08-21T03:25:47;1.50;;;1.10;;
22841;SDS011;11587;47.064;15.444;2022-08-21T03:28:17;1.20;;;1.10;;
22841;SDS011;11587;47.064;15.444;2022-08-21T03:30:46;1.85;;;1.30;;
22841;SDS011;11587;47.064;15.444;2022-08-21T03:33:14;2.13;;;1.30;;
22841;SDS011;11587;47.064;15.444;2022-08-21T03:38:06;1.83;;;1.42;;
22841;SDS011;11587;47.064;15.444;2022-08-21T03:40:32;1.40;;;1.20;;
22841;SDS011;11587;47.064;15.444;2022-08-21T03:42:58;1.40;;;1.30;;
22841;SDS011;11587;47.064;15.444;2022-08-21T03:45:24;1.73;;;1.40;;
22841;SDS011;11587;47.064;15.444;2022-08-21T03:50:16;1.67;;;1.40;;
22841;SDS011;11587;47.064;15.444;2022-08-21T03:52:42;1.90;;;1.42;;
22841;SDS011;11587;47.064;15.444;2022-08-21T03:55:08;1.48;;;1.30;;
22841;SDS011;11587;47.064;15.444;2022-08-21T03:57:34;1.55;;;1.30;;
22841;SDS011;11587;47.064;15.444;2022-08-21T04:02:25;1.83;;;1.30;;
22841;SDS011;11587;47.064;15.444;2022-08-21T04:04:52;1.80;;;1.30;;
22841;SDS011;11587;47.064;15.444;2022-08-21T04:07:18;1.80;;;1.40;;
22841;SDS011;11587;47.064;15.444;2022-08-21T04:09:43;1.40;;;1.30;;
22841;SDS011;11587;47.064;15.444;2022-08-21T04:17:01;3.30;;;1.57;;
22841;SDS011;11587;47.064;15.444;2022-08-21T04:19:26;1.80;;;1.40;;
22841;SDS011;11587;47.064;15.444;2022-08-21T04:21:52;1.92;;;1.38;;
22841;SDS011;11587;47.064;15.444;2022-08-21T04:24:18;2.30;;;1.40;;
22841;SDS011;11587;47.064;15.444;2022-08-21T04:31:35;2.63;;;1.20;;
22841;SDS011;11587;47.064;15.444;2022-08-21T04:34:02;1.42;;;1.10;;
22841;SDS011;11587;47.064;15.444;2022-08-21T04:36:29;1.40;;;1.30;;
22841;SDS011;11587;47.064;15.444;2022-08-21T04:41:21;2.00;;;1.40;;
22841;SDS011;11587;47.064;15.444;2022-08-21T04:43:47;2.42;;;1.42;;
22841;SDS011;11587;47.064;15.444;2022-08-21T04:46:15;2.50;;;1.40;;
22841;SDS011;11587;47.064;15.444;2022-08-21T04:48:41;1.63;;;1.40;;
22841;SDS011;11587;47.064;15.444;2022-08-21T04:51:11;1.83;;;1.38;;
22841;SDS011;11587;47.064;15.444;2022-08-21T04:53:52;2.00;;;1.30;;
22841;SDS011;11587;47.064;15.444;2022-08-21T04:56:30;1.77;;;1.27;;
22841;SDS011;11587;47.064;15.444;2022-08-21T05:01:25;1.75;;;1.33;;
22841;SDS011;11587;47.064;15.444;2022-08-21T05:03:55;1.90;;;1.50;;
22841;SDS011;11587;47.064;15.444;2022-08-21T05:06:24;1.50;;;1.38;;
22841;SDS011;11587;47.064;15.444;2022-08-21T05:13:43;2.80;;;1.60;;
22841;SDS011;11587;47.064;15.444;2022-08-21T05:16:09;1.80;;;1.40;;
22841;SDS011;11587;47.064;15.444;2022-08-21T05:18:35;1.80;;;1.40;;
22841;SDS011;11587;47.064;15.444;2022-08-21T05:21:01;2.35;;;1.42;;
22841;SDS011;11587;47.064;15.444;2022-08-21T05:23:28;2.38;;;1.42;;
22841;SDS011;11587;47.064;15.444;2022-08-21T05:28:19;2.50;;;1.60;;
22841;SDS011;11587;47.064;15.444;2022-08-21T05:30:45;1.88;;;1.65;;
22841;SDS011;11587;47.064;15.444;2022-08-21T05:33:11;1.90;;;1.70;;
22841;SDS011;11587;47.064;15.444;2022-08-21T05:35:37;2.22;;;1.60;;
22841;SDS011;11587;47.064;15.444;2022-08-21T05:40:29;2.45;;;1.60;;
22841;SDS011;11587;47.064;15.444;2022-08-21T05:42:55;2.60;;;1.50;;
22841;SDS011;11587;47.064;15.444;2022-08-21T05:45:23;2.47;;;1.40;;
22841;SDS011;11587;47.064;15.444;2022-08-21T05:47:51;2.55;;;1.45;;
22841;SDS011;11587;47.064;15.444;2022-08-21T05:55:08;1.50;;;1.30;;
22841;SDS011;11587;47.064;15.444;2022-08-21T05:57:34;2.70;;;1.30;;
22841;SDS011;11587;47.064;15.444;2022-08-21T06:00:00;2.20;;;1.30;;
22841;SDS011;11587;47.064;15.444;2022-08-21T06:02:26;2.20;;;1.30;;
22841;SDS011;11587;47.064;15.444;2022-08-21T06:04:51;2.40;;;1.30;;
22841;SDS011;11587;47.064;15.444;2022-08-21T06:07:17;2.08;;;1.27;;
22841;SDS011;11587;47.064;15.444;2022-08-21T06:09:43;1.80;;;1.30;;
22841;SDS011;11587;47.064;15.444;2022-08-21T06:12:10;3.13;;;1.40;;
22841;SDS011;11587;47.064;15.444;2022-08-21T06:14:37;1.65;;;1.33;;
22841;SDS011;11587;47.064;15.444;2022-08-21T06:19:30;1.20;;;1.10;;
22841;SDS011;11587;47.064;15.444;2022-08-21T06:21:57;1.90;;;1.30;;
22841;SDS011;11587;47.064;15.444;2022-08-21T06:24:22;1.63;;;1.10;;
22841;SDS011;11587;47.064;15.444;2022-08-21T06:26:49;1.60;;;1.20;;
22841;SDS011;11587;47.064;15.444;2022-08-21T06:31:41;1.55;;;1.23;;
22841;SDS011;11587;47.064;15.444;2022-08-21T06:34:09;1.57;;;1.30;;
22841;SDS011;11587;47.064;15.444;2022-08-21T06:36:35;1.60;;;1.20;;
22841;SDS011;11587;47.064;15.444;2022-08-21T06:39:01;2.70;;;1.40;;
22841;SDS011;11587;47.064;15.444;2022-08-21T06:41:28;2.60;;;1.40;;
22841;SDS011;11587;47.064;15.444;2022-08-21T06:46:19;1.90;;;1.40;;
22841;SDS011;11587;47.064;15.444;2022-08-21T06:48:45;1.90;;;1.30;;
22841;SDS011;11587;47.064;15.444;2022-08-21T06:51:11;1.50;;;1.20;;
22841;SDS011;11587;47.064;15.444;2022-08-21T06:53:37;1.42;;;1.00;;
22841;SDS011;11587;47.064;15.444;2022-08-21T06:56:03;2.83;;;1.23;;
22841;SDS011;11587;47.064;15.444;2022-08-21T07:00:55;1.40;;;0.90;;
22841;SDS011;11587;47.064;15.444;2022-08-21T07:03:25;1.00;;;0.90;;
22841;SDS011;11587;47.064;15.444;2022-08-21T07:05:54;0.87;;;0.83;;
22841;SDS011;11587;47.064;15.444;2022-08-21T07:08:20;1.38;;;1.00;;
22841;SDS011;11587;47.064;15.444;2022-08-21T07:13:12;1.20;;;1.00;;
22841;SDS011;11587;47.064;15.444;2022-08-21T07:15:38;1.15;;;0.85;;
22841;SDS011;11587;47.064;15.444;2022-08-21T07:18:04;1.00;;;0.90;;
22841;SDS011;11587;47.064;15.444;2022-08-21T07:20:31;1.00;;;0.90;;
22841;SDS011;11587;47.064;15.444;2022-08-21T07:27:48;1.00;;;0.90;;
22841;SDS011;11587;47.064;15.444;2022-08-21T07:30:14;1.10;;;1.00;;
22841;SDS011;11587;47.064;15.444;2022-08-21T07:32:40;1.27;;;1.00;;
22841;SDS011;11587;47.064;15.444;2022-08-21T07:35:05;2.30;;;0.80;;
22841;SDS011;11587;47.064;15.444;2022-08-21T07:37:32;1.90;;;0.80;;
22841;SDS011;11587;47.064;15.444;2022-08-21T07:39:59;0.90;;;0.80;;
22841;SDS011;11587;47.064;15.444;2022-08-21T07:42:24;2.00;;;0.90;;
22841;SDS011;11587;47.064;15.444;2022-08-21T07:44:50;0.90;;;0.80;;
22841;SDS011;11587;47.064;15.444;2022-08-21T07:47:16;1.00;;;0.90;;
22841;SDS011;11587;47.064;15.444;2022-08-21T07:54:33;1.00;;;0.90;;
22841;SDS011;11587;47.064;15.444;2022-08-21T07:56:59;0.80;;;0.80;;
22841;SDS011;11587;47.064;15.444;2022-08-21T07:59:25;1.40;;;0.80;;
22841;SDS011;11587;47.064;15.444;2022-08-21T08:01:51;1.10;;;1.00;;
22841;SDS011;11587;47.064;15.444;2022-08-21T08:06:42;0.90;;;0.80;;
22841;SDS011;11587;47.064;15.444;2022-08-21T08:09:08;1.10;;;0.90;;
22841;SDS011;11587;47.064;15.444;2022-08-21T08:11:34;0.90;;;0.70;;
22841;SDS011;11587;47.064;15.444;2022-08-21T08:14:02;1.00;;;0.80;;
22841;SDS011;11587;47.064;15.444;2022-08-21T08:16:29;1.23;;;0.90;;
22841;SDS011;11587;47.064;15.444;2022-08-21T08:21:23;1.08;;;0.82;;
22841;SDS011;11587;47.064;15.444;2022-08-21T08:23:49;1.30;;;0.90;;
22841;SDS011;11587;47.064;15.444;2022-08-21T08:26:15;1.08;;;0.88;;
22841;SDS011;11587;47.064;15.444;2022-08-21T08:28:41;1.30;;;0.90;;
22841;SDS011;11587;47.064;15.444;2022-08-21T08:33:33;1.93;;;0.97;;
22841;SDS011;11587;47.064;15.444;2022-08-21T08:35:59;1.10;;;0.80;;
22841;SDS011;11587;47.064;15.444;2022-08-21T08:38:25;1.17;;;0.88;;
22841;SDS011;11587;47.064;15.444;2022-08-21T08:41:06;1.02;;;0.93;;
22841;SDS011;11587;47.064;15.444;2022-08-21T08:48:39;1.20;;;0.90;;
22841;SDS011;11587;47.064;15.444;2022-08-21T08:51:08;1.10;;;0.70;;
22841;SDS011;11587;47.064;15.444;2022-08-21T08:53:59;1.00;;;0.80;;
22841;SDS011;11587;47.064;15.444;2022-08-21T08:56:30;0.73;;;0.73;;
22841;SDS011;11587;47.064;15.444;2022-08-21T08:59:02;0.82;;;0.70;;
22841;SDS011;11587;47.064;15.444;2022-08-21T09:01:43;0.80;;;0.70;;
22841;SDS011;11587;47.064;15.444;2022-08-21T09:04:10;1.60;;;0.70;;
22841;SDS011;11587;47.064;15.444;2022-08-21T09:12:02;0.65;;;0.55;;
22841;SDS011;11587;47.064;15.444;2022-08-21T09:20:17;0.80;;;0.60;;
22841;SDS011;11587;47.064;15.444;2022-08-21T09:22:47;0.63;;;0.50;;
22841;SDS011;11587;47.064;15.444;2022-08-21T09:25:18;1.40;;;0.67;;
22841;SDS011;11587;47.064;15.444;2022-08-21T09:27:47;0.70;;;0.60;;
22841;SDS011;11587;47.064;15.444;2022-08-21T09:30:14;0.70;;;0.70;;
22841;SDS011;11587;47.064;15.444;2022-08-21T09:32:40;0.88;;;0.70;;
22841;SDS011;11587;47.064;15.444;2022-08-21T09:37:49;0.77;;;0.70;;
22841;SDS011;11587;47.064;15.444;2022-08-21T09:40:32;1.20;;;0.70;;
22841;SDS011;11587;47.064;15.444;2022-08-21T09:45:24;1.07;;;0.90;;
22841;SDS011;11587;47.064;15.444;2022-08-21T09:47:50;0.80;;;0.70;;
22841;SDS011;11587;47.064;15.444;2022-08-21T09:50:17;0.85;;;0.75;;
22841;SDS011;11587;47.064;15.444;2022-08-21T09:52:48;2.70;;;1.00;;
22841;SDS011;11587;47.064;15.444;2022-08-21T09:55:21;1.08;;;0.80;;
22841;SDS011;11587;47.064;15.444;2022-08-21T09:58:14;1.08;;;0.73;;
22841;SDS011;11587;47.064;15.444;2022-08-21T10:00:41;0.80;;;0.70;;
22841;SDS011;11587;47.064;15.444;2022-08-21T10:05:55;3.30;;;0.70;;
22841;SDS011;11587;47.064;15.444;2022-08-21T10:08:25;1.00;;;0.80;;
22841;SDS011;11587;47.064;15.444;2022-08-21T10:10:56;1.08;;;0.95;;
22841;SDS011;11587;47.064;15.444;2022-08-21T10:13:30;0.70;;;0.70;;
22841;SDS011;11587;47.064;15.444;2022-08-21T10:18:37;1.40;;;0.77;;
22841;SDS011;11587;47.064;15.444;2022-08-21T10:21:14;0.80;;;0.70;;
22841;SDS011;11587;47.064;15.444;2022-08-21T10:28:57;1.00;;;0.80;;
22841;SDS011;11587;47.064;15.444;2022-08-21T10:32:04;1.00;;;0.80;;
22841;SDS011;11587;47.064;15.444;2022-08-21T10:34:54;1.40;;;0.85;;
22841;SDS011;11587;47.064;15.444;2022-08-21T10:43:04;1.05;;;0.80;;
22841;SDS011;11587;47.064;15.444;2022-08-21T10:48:06;1.20;;;0.90;;
22841;SDS011;11587;47.064;15.444;2022-08-21T10:50:42;1.08;;;0.80;;
22841;SDS011;11587;47.064;15.444;2022-08-21T10:53:16;1.10;;;1.00;;
22841;SDS011;11587;47.064;15.444;2022-08-21T10:56:11;1.00;;;0.85;;
22841;SDS011;11587;47.064;15.444;2022-08-21T10:58:45;0.90;;;0.70;;
22841;SDS011;11587;47.064;15.444;2022-08-21T11:01:46;0.97;;;0.77;;
22841;SDS011;11587;47.064;15.444;2022-08-21T11:07:21;1.85;;;0.77;;
22841;SDS011;11587;47.064;15.444;2022-08-21T11:09:56;0.85;;;0.80;;
22841;SDS011;11587;47.064;15.444;2022-08-21T11:14:54;2.20;;;0.80;;
22841;SDS011;11587;47.064;15.444;2022-08-21T11:17:39;1.60;;;0.70;;
22841;SDS011;11587;47.064;15.444;2022-08-21T11:20:14;0.82;;;0.70;;
22841;SDS011;11587;47.064;15.444;2022-08-21T11:23:14;1.90;;;0.80;;
22841;SDS011;11587;47.064;15.444;2022-08-21T11:25:55;0.80;;;0.65;;
22841;SDS011;11587;47.064;15.444;2022-08-21T11:28:28;1.05;;;0.80;;
22841;SDS011;11587;47.064;15.444;2022-08-21T11:41:31;0.87;;;0.77;;
22841;SDS011;11587;47.064;15.444;2022-08-21T11:44:41;1.27;;;0.65;;
22841;SDS011;11587;47.064;15.444;2022-08-21T11:47:37;1.00;;;0.60;;
22841;SDS011;11587;47.064;15.444;2022-08-21T11:50:20;1.10;;;0.57;;
22841;SDS011;11587;47.064;15.444;2022-08-21T11:55:31;0.60;;;0.50;;
22841;SDS011;11587;47.064;15.444;2022-08-21T11:58:05;0.85;;;0.52;;
22841;SDS011;11587;47.064;15.444;2022-08-21T12:00:44;1.20;;;0.35;;
22841;SDS011;11587;47.064;15.444;2022-08-21T12:03:21;0.60;;;0.40;;
22841;SDS011;11587;47.064;15.444;2022-08-21T12:08:15;0.80;;;0.60;;
22841;SDS011;11587;47.064;15.444;2022-08-21T12:11:02;1.60;;;0.50;;
22841;SDS011;11587;47.064;15.444;2022-08-21T12:13:34;0.70;;;0.43;;
22841;SDS011;11587;47.064;15.444;2022-08-21T12:16:15;0.50;;;0.40;;
22841;SDS011;11587;47.064;15.444;2022-08-21T12:19:02;0.60;;;0.47;;
22841;SDS011;11587;47.064;15.444;2022-08-21T12:21:32;1.02;;;0.50;;
22841;SDS011;11587;47.064;15.444;2022-08-21T12:26:28;0.67;;;0.47;;
22841;SDS011;11587;47.064;15.444;2022-08-21T12:29:04;1.42;;;0.60;;
22841;SDS011;11587;47.064;15.444;2022-08-21T12:34:48;0.60;;;0.30;;
22841;SDS011;11587;47.064;15.444;2022-08-21T12:39:50;0.73;;;0.63;;
22841;SDS011;11587;47.064;15.444;2022-08-21T12:42:20;0.60;;;0.60;;
22841;SDS011;11587;47.064;15.444;2022-08-21T12:47:33;0.50;;;0.40;;
22841;SDS011;11587;47.064;15.444;2022-08-21T12:50:52;0.50;;;0.40;;
22841;SDS011;11587;47.064;15.444;2022-08-21T12:53:15;0.47;;;0.40;;
22841;SDS011;11587;47.064;15.444;2022-08-21T12:56:12;0.98;;;0.57;;
22841;SDS011;11587;47.064;15.444;2022-08-21T12:58:47;1.40;;;0.50;;
22841;SDS011;11587;47.064;15.444;2022-08-21T13:01:23;0.50;;;0.40;;
22841;SDS011;11587;47.064;15.444;2022-08-21T13:03:53;0.70;;;0.40;;
22841;SDS011;11587;47.064;15.444;2022-08-21T13:06:23;0.70;;;0.40;;
22841;SDS011;11587;47.064;15.444;2022-08-21T13:11:18;1.30;;;0.60;;
22841;SDS011;11587;47.064;15.444;2022-08-21T13:13:50;3.40;;;0.60;;
22841;SDS011;11587;47.064;15.444;2022-08-21T13:16:26;0.70;;;0.50;;
22841;SDS011;11587;47.064;15.444;2022-08-21T13:18:55;1.23;;;0.50;;
22841;SDS011;11587;47.064;15.444;2022-08-21T13:21:21;1.40;;;0.50;;
22841;SDS011;11587;47.064;15.444;2022-08-21T13:28:48;0.97;;;0.50;;
22841;SDS011;11587;47.064;15.444;2022-08-21T13:31:22;0.80;;;0.40;;
22841;SDS011;11587;47.064;15.444;2022-08-21T13:33:53;1.35;;;0.47;;
22841;SDS011;11587;47.064;15.444;2022-08-21T13:36:24;0.50;;;0.40;;
22841;SDS011;11587;47.064;15.444;2022-08-21T13:43:49;0.50;;;0.40;;
22841;SDS011;11587;47.064;15.444;2022-08-21T13:46:22;0.60;;;0.43;;
22841;SDS011;11587;47.064;15.444;2022-08-21T13:48:51;0.52;;;0.40;;
22841;SDS011;11587;47.064;15.444;2022-08-21T13:51:19;0.50;;;0.40;;
22841;SDS011;11587;47.064;15.444;2022-08-21T13:53:47;0.63;;;0.50;;
22841;SDS011;11587;47.064;15.444;2022-08-21T13:58:45;0.40;;;0.40;;
22841;SDS011;11587;47.064;15.444;2022-08-21T14:03:57;0.80;;;0.50;;
22841;SDS011;11587;47.064;15.444;2022-08-21T14:06:27;0.40;;;0.40;;
22841;SDS011;11587;47.064;15.444;2022-08-21T14:13:50;0.80;;;0.60;;
22841;SDS011;11587;47.064;15.444;2022-08-21T14:16:26;0.40;;;0.40;;
22841;SDS011;11587;47.064;15.444;2022-08-21T14:19:18;0.90;;;0.50;;
22841;SDS011;11587;47.064;15.444;2022-08-21T14:21:47;0.50;;;0.50;;
22841;SDS011;11587;47.064;15.444;2022-08-21T14:24:24;0.80;;;0.50;;
22841;SDS011;11587;47.064;15.444;2022-08-21T14:31:53;0.90;;;0.60;;
22841;SDS011;11587;47.064;15.444;2022-08-21T14:34:22;0.65;;;0.60;;
22841;SDS011;11587;47.064;15.444;2022-08-21T14:36:51;1.60;;;0.60;;
22841;SDS011;11587;47.064;15.444;2022-08-21T14:39:17;0.60;;;0.60;;
22841;SDS011;11587;47.064;15.444;2022-08-21T14:44:09;0.50;;;0.50;;
22841;SDS011;11587;47.064;15.444;2022-08-21T14:46:35;0.73;;;0.70;;
22841;SDS011;11587;47.064;15.444;2022-08-21T14:49:03;0.80;;;0.60;;
22841;SDS011;11587;47.064;15.444;2022-08-21T14:51:29;1.50;;;0.60;;
22841;SDS011;11587;47.064;15.444;2022-08-21T14:53:55;1.20;;;0.60;;
22841;SDS011;11587;47.064;15.444;2022-08-21T15:01:12;0.90;;;0.70;;
22841;SDS011;11587;47.064;15.444;2022-08-21T15:03:40;1.10;;;0.80;;
22841;SDS011;11587;47.064;15.444;2022-08-21T15:06:07;0.82;;;0.73;;
22841;SDS011;11587;47.064;15.444;2022-08-21T15:10:59;1.10;;;0.90;;
22841;SDS011;11587;47.064;15.444;2022-08-21T15:13:26;0.90;;;0.80;;
22841;SDS011;11587;47.064;15.444;2022-08-21T15:15:53;1.55;;;1.00;;
22841;SDS011;11587;47.064;15.444;2022-08-21T15:18:19;1.17;;;0.90;;
22841;SDS011;11587;47.064;15.444;2022-08-21T15:20:46;1.20;;;1.00;;
22841;SDS011;11587;47.064;15.444;2022-08-21T15:25:39;1.50;;;1.25;;
22841;SDS011;11587;47.064;15.444;2022-08-21T15:28:07;1.20;;;1.00;;
22841;SDS011;11587;47.064;15.444;2022-08-21T15:30:34;1.70;;;1.17;;
22841;SDS011;11587;47.064;15.444;2022-08-21T15:33:02;1.38;;;1.00;;
22841;SDS011;11587;47.064;15.444;2022-08-21T15:35:28;1.80;;;1.10;;
22841;SDS011;11587;47.064;15.444;2022-08-21T15:40:20;1.30;;;1.10;;
22841;SDS011;11587;47.064;15.444;2022-08-21T15:42:46;1.70;;;1.20;;
22841;SDS011;11587;47.064;15.444;2022-08-21T15:45:12;1.45;;;1.10;;
22841;SDS011;11587;47.064;15.444;2022-08-21T15:47:39;1.48;;;1.20;;
22841;SDS011;11587;47.064;15.444;2022-08-21T15:54:59;1.10;;;1.00;;
22841;SDS011;11587;47.064;15.444;2022-08-21T15:57:26;1.45;;;1.00;;
22841;SDS011;11587;47.064;15.444;2022-08-21T16:00:25;1.40;;;1.20;;
22841;SDS011;11587;47.064;15.444;2022-08-21T16:02:49;1.80;;;1.20;;
22841;SDS011;11587;47.064;15.444;2022-08-21T16:05:18;1.70;;;1.10;;
22841;SDS011;11587;47.064;15.444;2022-08-21T16:07:45;1.55;;;1.23;;
22841;SDS011;11587;47.064;15.444;2022-08-21T16:10:13;1.55;;;1.25;;
22841;SDS011;11587;47.064;15.444;2022-08-21T16:12:44;2.53;;;1.40;;
22841;SDS011;11587;47.064;15.444;2022-08-21T16:15:21;2.65;;;1.25;;
22841;SDS011;11587;47.064;15.444;2022-08-21T16:17:47;2.50;;;1.30;;
22841;SDS011;11587;47.064;15.444;2022-08-21T16:25:06;1.33;;;1.15;;
22841;SDS011;11587;47.064;15.444;2022-08-21T16:27:33;1.50;;;1.13;;
22841;SDS011;11587;47.064;15.444;2022-08-21T16:30:01;1.75;;;1.20;;
22841;SDS011;11587;47.064;15.444;2022-08-21T16:32:28;2.05;;;1.20;;
22841;SDS011;11587;47.064;15.444;2022-08-21T16:34:54;2.27;;;1.27;;
22841;SDS011;11587;47.064;15.444;2022-08-21T16:37:20;1.58;;;1.25;;
22841;SDS011;11587;47.064;15.444;2022-08-21T16:39:46;1.40;;;1.30;;
22841;SDS011;11587;47.064;15.444;2022-08-21T16:42:13;1.55;;;1.30;;
22841;SDS011;11587;47.064;15.444;2022-08-21T16:44:43;1.30;;;1.20;;
22841;SDS011;11587;47.064;15.444;2022-08-21T16:52:00;2.38;;;1.40;;
22841;SDS011;11587;47.064;15.444;2022-08-21T16:54:26;1.80;;;1.23;;
22841;SDS011;11587;47.064;15.444;2022-08-21T16:56:55;1.50;;;1.13;;
22841;SDS011;11587;47.064;15.444;2022-08-21T17:04:12;1.73;;;1.40;;
22841;SDS011;11587;47.064;15.444;2022-08-21T17:06:38;1.48;;;1.20;;
22841;SDS011;11587;47.064;15.444;2022-08-21T17:09:04;1.90;;;1.27;;
22841;SDS011;11587;47.064;15.444;2022-08-21T17:11:32;1.50;;;1.20;;
22841;SDS011;11587;47.064;15.444;2022-08-21T17:14:10;2.47;;;1.42;;
22841;SDS011;11587;47.064;15.444;2022-08-21T17:16:39;2.50;;;1.42;;
22841;SDS011;11587;47.064;15.444;2022-08-21T17:21:34;1.90;;;1.30;;
22841;SDS011;11587;47.064;15.444;2022-08-21T17:24:00;2.40;;;1.60;;
22841;SDS011;11587;47.064;15.444;2022-08-21T17:26:26;2.08;;;1.60;;
22841;SDS011;11587;47.064;15.444;2022-08-21T17:33:47;2.50;;;1.50;;
22841;SDS011;11587;47.064;15.444;2022-08-21T17:36:17;1.77;;;1.63;;
22841;SDS011;11587;47.064;15.444;2022-08-21T17:38:45;2.20;;;1.60;;
22841;SDS011;11587;47.064;15.444;2022-08-21T17:41:11;2.38;;;1.75;;
22841;SDS011;11587;47.064;15.444;2022-08-21T17:46:03;2.40;;;1.60;;
22841;SDS011;11587;47.064;15.444;2022-08-21T17:48:30;2.40;;;1.60;;
22841;SDS011;11587;47.064;15.444;2022-08-21T17:50:56;2.42;;;1.67;;
22841;SDS011;11587;47.064;15.444;2022-08-21T17:53:22;1.65;;;1.50;;
22841;SDS011;11587;47.064;15.444;2022-08-21T17:55:51;1.95;;;1.75;;
22841;SDS011;11587;47.064;15.444;2022-08-21T18:00:42;1.73;;;1.60;;
22841;SDS011;11587;47.064;15.444;2022-08-21T18:03:10;2.08;;;1.70;;
22841;SDS011;11587;47.064;15.444;2022-08-21T18:05:43;2.58;;;1.60;;
22841;SDS011;11587;47.064;15.444;2022-08-21T18:08:10;1.70;;;1.52;;
22841;SDS011;11587;47.064;15.444;2022-08-21T18:10:38;1.83;;;1.50;;
22841;SDS011;11587;47.064;15.444;2022-08-21T18:15:32;2.47;;;1.40;;
22841;SDS011;11587;47.064;15.444;2022-08-21T18:17:59;3.50;;;1.85;;
22841;SDS011;11587;47.064;15.444;2022-08-21T18:20:25;2.00;;;1.77;;
22841;SDS011;11587;47.064;15.444;2022-08-21T18:22:52;1.95;;;1.60;;
22841;SDS011;11587;47.064;15.444;2022-08-21T18:27:44;3.60;;;2.10;;
22841;SDS011;11587;47.064;15.444;2022-08-21T18:30:15;1.98;;;1.73;;
22841;SDS011;11587;47.064;15.444;2022-08-21T18:32:46;2.53;;;1.70;;
22841;SDS011;11587;47.064;15.444;2022-08-21T18:35:13;2.30;;;1.73;;
22841;SDS011;11587;47.064;15.444;2022-08-21T18:37:40;2.05;;;1.60;;
22841;SDS011;11587;47.064;15.444;2022-08-21T18:40:07;2.00;;;1.80;;
22841;SDS011;11587;47.064;15.444;2022-08-21T18:45:19;2.90;;;1.95;;
22841;SDS011;11587;47.064;15.444;2022-08-21T18:47:49;2.30;;;2.00;;
22841;SDS011;11587;47.064;15.444;2022-08-21T18:50:18;2.33;;;1.80;;
22841;SDS011;11587;47.064;15.444;2022-08-21T18:52:45;5.30;;;1.90;;
22841;SDS011;11587;47.064;15.444;2022-08-21T18:57:38;2.80;;;1.98;;
22841;SDS011;11587;47.064;15.444;2022-08-21T19:00:09;3.37;;;2.03;;
22841;SDS011;11587;47.064;15.444;2022-08-21T19:02:39;2.75;;;2.03;;
22841;SDS011;11587;47.064;15.444;2022-08-21T19:05:06;2.50;;;1.90;;